createdAt,value
2022-08-27T00:01:36.365Z,100026.78
2022-08-27T00:03:39.267Z,100028.38
2022-08-27T00:05:43.514Z,100030.06
2022-08-27T00:07:47.906Z,100028.50
2022-08-27T00:09:50.591Z,100030.91
2022-08-27T00:11:53.276Z,100036.94
2022-08-27T00:13:56.936Z,100032.13
2022-08-27T00:15:59.633Z,100030.19
2022-08-27T00:18:02.287Z,100037.00
2022-08-27T00:20:06.492Z,100034.19
2022-08-27T00:22:10.272Z,100028.97
2022-08-27T00:24:13.344Z,100036.16
2022-08-27T00:26:17.104Z,100030.56
2022-08-27T00:28:20.003Z,100037.34
2022-08-27T00:30:24.281Z,100030.13
2022-08-27T00:32:27.137Z,100038.16
2022-08-27T00:34:30.075Z,100042.97
2022-08-27T00:36:32.727Z,100034.97
2022-08-27T00:38:40.963Z,100036.13
2022-08-27T00:40:44.986Z,100045.25
2022-08-27T00:42:55.090Z,100042.38
2022-08-27T00:44:59.948Z,100049.09
2022-08-27T00:47:25.316Z,100041.44
2022-08-27T00:50:21.027Z,100038.91
2022-08-27T00:52:28.540Z,100047.66
2022-08-27T00:54:31.533Z,100048.44
2022-08-27T00:56:40.857Z,100055.59
2022-08-27T00:58:47.908Z,100051.47
2022-08-27T01:00:50.937Z,100062.66
2022-08-27T01:02:54.082Z,100061.00
2022-08-27T01:05:01.554Z,100061.34
2022-08-27T01:07:06.334Z,100062.88
2022-08-27T01:09:14.678Z,100064.34
2022-08-27T01:11:19.012Z,100063.91
2022-08-27T01:13:58.823Z,100062.25
2022-08-27T01:15:47.961Z,100062.59
2022-08-27T01:17:51.879Z,100060.94
2022-08-27T01:20:00.663Z,100060.88
2022-08-27T01:22:19.921Z,100072.06
2022-08-27T01:24:33.100Z,100061.31
2022-08-27T01:26:36.948Z,100067.72
2022-08-27T01:28:39.799Z,100066.09
2022-08-27T01:30:44.059Z,100066.47
2022-08-27T01:32:47.784Z,100065.59
2022-08-27T01:34:51.590Z,100067.50
2022-08-27T01:36:57.322Z,100067.41
2022-08-27T01:39:00.375Z,100070.56
2022-08-27T01:41:03.368Z,100078.91
2022-08-27T01:43:06.330Z,100077.25
2022-08-27T01:45:14.973Z,100074.78
2022-08-27T01:47:20.634Z,100082.66
2022-08-27T01:49:23.392Z,100079.06
2022-08-27T01:51:26.218Z,100087.81
2022-08-27T01:53:28.929Z,100079.81
2022-08-27T01:55:31.653Z,100082.66
2022-08-27T01:57:35.435Z,100083.94
2022-08-27T01:59:39.755Z,100085.19
2022-08-27T02:01:42.984Z,100086.06
2022-08-27T02:03:47.634Z,100084.84
2022-08-27T02:05:50.782Z,100084.47
2022-08-27T02:07:54.488Z,100096.50
2022-08-27T02:09:57.148Z,100098.91
2022-08-27T02:12:01.021Z,100098.13
2022-08-27T02:14:03.779Z,100100.91
2022-08-27T02:16:16.590Z,100096.44
2022-08-27T02:18:19.478Z,100101.69
2022-08-27T02:20:23.111Z,100107.63
2022-08-27T02:22:28.520Z,100103.59
2022-08-27T02:24:31.224Z,100108.78
2022-08-27T02:26:34.123Z,100111.59
2022-08-27T02:28:37.171Z,100110.41
2022-08-27T02:30:40.052Z,100107.63
2022-08-27T02:32:42.791Z,100112.41
2022-08-27T02:34:45.512Z,100102.41
2022-08-27T02:36:48.418Z,100113.25
2022-08-27T02:38:51.573Z,100115.66
2022-08-27T02:40:54.289Z,100111.28
2022-08-27T02:42:57.055Z,100116.09
2022-08-27T02:44:59.770Z,100115.34
2022-08-27T02:47:06.121Z,100118.56
2022-08-27T02:49:09.774Z,100113.84
2022-08-27T02:51:12.621Z,100113.88
2022-08-27T02:53:15.530Z,100111.09
2022-08-27T02:55:18.786Z,100113.94
2022-08-27T02:57:22.622Z,100111.56
2022-08-27T02:59:25.307Z,100109.22
2022-08-27T03:01:28.696Z,100117.69
2022-08-27T03:03:31.787Z,100117.34
2022-08-27T03:05:34.566Z,100122.16
2022-08-27T03:07:37.690Z,100115.00
2022-08-27T03:09:40.824Z,100121.81
2022-08-27T03:11:43.464Z,100119.03
2022-08-27T03:13:46.210Z,100121.53
2022-08-27T03:15:49.398Z,100122.78
2022-08-27T03:18:12.054Z,100121.22
2022-08-27T03:20:14.733Z,100126.44
2022-08-27T03:22:17.369Z,100116.88
2022-08-27T03:24:20.040Z,100122.13
2022-08-27T03:26:24.707Z,100126.59
2022-08-27T03:28:31.932Z,100120.25
2022-08-27T03:30:34.720Z,100128.72
2022-08-27T03:32:37.914Z,100129.56
2022-08-27T03:34:40.568Z,100127.25
2022-08-27T03:36:43.952Z,100126.06
2022-08-27T03:38:49.824Z,100121.31
2022-08-27T03:40:52.661Z,100130.97
2022-08-27T03:42:55.831Z,100133.44
2022-08-27T03:44:58.602Z,100129.06
2022-08-27T03:47:01.396Z,100135.09
2022-08-27T03:49:04.931Z,100129.53
2022-08-27T03:51:10.249Z,100124.38
2022-08-27T03:53:14.548Z,100120.44
2022-08-27T03:55:17.227Z,100123.31
2022-08-27T03:57:20.085Z,100125.75
2022-08-27T03:59:22.752Z,100123.78
2022-08-27T04:01:25.460Z,100128.22
2022-08-27T04:03:28.664Z,100123.03
2022-08-27T04:05:31.627Z,100123.47
2022-08-27T04:07:34.289Z,100120.25
2022-08-27T04:09:37.040Z,100133.13
2022-08-27T04:11:39.683Z,100116.75
2022-08-27T04:13:42.324Z,100124.78
2022-08-27T04:15:50.041Z,100124.38
2022-08-27T04:17:52.934Z,100127.22
2022-08-27T04:19:55.632Z,100124.03
2022-08-27T04:22:03.066Z,100119.22
2022-08-27T04:24:06.023Z,100127.25
2022-08-27T04:26:11.397Z,100126.50
2022-08-27T04:28:15.610Z,100132.94
2022-08-27T04:30:19.599Z,100133.03
2022-08-27T04:32:23.593Z,100131.88
2022-08-27T04:34:31.092Z,100140.31
2022-08-27T04:36:33.817Z,100141.13
2022-08-27T04:38:37.495Z,100135.13
2022-08-27T04:40:58.758Z,100136.78
2022-08-27T04:43:01.396Z,100131.56
2022-08-27T04:45:04.880Z,100133.97
2022-08-27T04:47:07.737Z,100141.63
2022-08-27T04:49:13.668Z,100139.63
2022-08-27T04:51:18.639Z,100138.44
2022-08-27T04:53:21.522Z,100136.84
2022-08-27T04:55:24.804Z,100142.50
2022-08-27T04:57:28.104Z,100152.53
2022-08-27T04:59:31.965Z,100154.16
2022-08-27T05:01:36.999Z,100151.75
2022-08-27T05:03:40.192Z,100147.78
2022-08-27T05:05:44.799Z,100150.63
2022-08-27T05:07:47.706Z,100153.03
2022-08-27T05:09:56.185Z,100160.69
2022-08-27T05:11:58.917Z,100167.13
2022-08-27T05:14:06.700Z,100161.50
2022-08-27T05:16:12.812Z,100171.16
2022-08-27T05:18:15.691Z,100161.94
2022-08-27T05:20:19.690Z,100162.72
2022-08-27T05:22:22.334Z,100161.13
2022-08-27T05:24:26.343Z,100170.78
2022-08-27T05:26:29.927Z,100167.56
2022-08-27T05:28:32.671Z,100164.75
2022-08-27T05:30:44.480Z,100170.78
2022-08-27T05:32:52.252Z,100169.22
2022-08-27T05:34:54.908Z,100173.25
2022-08-27T05:36:57.645Z,100172.03
2022-08-27T05:39:02.184Z,100168.00
2022-08-27T05:41:09.257Z,100179.63
2022-08-27T05:43:15.989Z,100169.22
2022-08-27T05:45:19.655Z,100172.44
2022-08-27T05:47:23.198Z,100176.81
2022-08-27T05:49:26.404Z,100171.56
2022-08-27T05:51:32.818Z,100176.38
2022-08-27T05:53:36.544Z,100183.59
2022-08-27T05:55:45.904Z,100184.03
2022-08-27T05:57:48.715Z,100174.38
2022-08-27T06:00:10.101Z,100176.34
2022-08-27T06:02:19.776Z,100180.38
2022-08-27T06:04:24.728Z,100168.69
2022-08-27T06:06:27.551Z,100173.06
2022-08-27T06:08:30.607Z,100179.44
2022-08-27T06:10:33.727Z,100179.44
2022-08-27T06:12:36.486Z,100182.22
2022-08-27T06:14:39.378Z,100176.19
2022-08-27T06:16:42.837Z,100177.75
2022-08-27T06:18:48.071Z,100175.34
2022-08-27T06:20:50.728Z,100176.91
2022-08-27T06:22:53.581Z,100176.06
2022-08-27T06:24:56.314Z,100174.44
2022-08-27T06:26:59.704Z,100175.63
2022-08-27T06:29:07.617Z,100174.34
2022-08-27T06:31:13.970Z,100169.47
2022-08-27T06:33:16.959Z,100169.00
2022-08-27T06:35:19.599Z,100164.94
2022-08-27T06:37:22.274Z,100167.28
2022-08-27T06:39:24.978Z,100164.06
2022-08-27T06:41:29.203Z,100166.81
2022-08-27T06:43:32.403Z,100162.34
2022-08-27T06:45:38.920Z,100163.94
2022-08-27T06:47:41.921Z,100159.53
2022-08-27T06:49:46.553Z,100167.47
2022-08-27T06:51:49.365Z,100160.94
2022-08-27T06:53:53.394Z,100169.34
2022-08-27T06:55:56.093Z,100165.69
2022-08-27T06:57:58.837Z,100169.28
2022-08-27T07:00:01.893Z,100161.53
2022-08-27T07:02:07.546Z,100163.09
2022-08-27T07:04:14.323Z,100165.06
2022-08-27T07:06:18.332Z,100164.97
2022-08-27T07:08:21.031Z,100164.50
2022-08-27T07:10:24.853Z,100164.09
2022-08-27T07:12:30.349Z,100163.25
2022-08-27T07:14:37.992Z,100166.00
2022-08-27T07:16:41.395Z,100173.19
2022-08-27T07:18:44.220Z,100169.88
2022-08-27T07:20:48.256Z,100166.13
2022-08-27T07:22:54.481Z,100162.03
2022-08-27T07:24:57.166Z,100165.19
2022-08-27T07:27:00.055Z,100171.59
2022-08-27T07:29:07.707Z,100170.78
2022-08-27T07:31:12.937Z,100164.72
2022-08-27T07:33:15.906Z,100163.38
2022-08-27T07:35:19.050Z,100160.03
2022-08-27T07:37:22.450Z,100170.06
2022-08-27T07:39:26.403Z,100164.78
2022-08-27T07:41:33.324Z,100156.66
2022-08-27T07:43:56.085Z,100161.84
2022-08-27T07:46:02.124Z,100152.94
2022-08-27T07:48:04.968Z,100159.34
2022-08-27T07:50:08.133Z,100156.03
2022-08-27T07:52:12.007Z,100151.91
2022-08-27T07:54:16.395Z,100155.13
2022-08-27T07:56:19.872Z,100155.41
2022-08-27T07:58:24.307Z,100156.25
2022-08-27T08:00:28.961Z,100158.25
2022-08-27T08:02:31.852Z,100158.25
2022-08-27T08:04:34.755Z,100155.00
2022-08-27T08:06:39.592Z,100153.72
2022-08-27T08:08:44.020Z,100159.34
2022-08-27T08:10:49.131Z,100165.34
2022-08-27T08:12:51.994Z,100160.88
2022-08-27T08:14:58.124Z,100160.88
2022-08-27T08:17:02.931Z,100154.25
2022-08-27T08:19:09.604Z,100155.34
2022-08-27T08:21:14.459Z,100153.56
2022-08-27T08:23:17.331Z,100149.94
2022-08-27T08:25:20.092Z,100158.16
2022-08-27T08:27:23.064Z,100156.84
2022-08-27T08:29:25.823Z,100159.88
2022-08-27T08:31:29.891Z,100162.16
2022-08-27T08:33:34.030Z,100151.91
2022-08-27T08:35:41.566Z,100154.22
2022-08-27T08:37:44.982Z,100159.41
2022-08-27T08:39:47.899Z,100148.72
2022-08-27T08:42:01.949Z,100154.66
2022-08-27T08:44:17.023Z,100156.13
2022-08-27T08:46:34.487Z,100152.78
2022-08-27T08:48:43.771Z,100152.69
2022-08-27T08:50:59.462Z,100151.88
2022-08-27T08:53:08.636Z,100156.13
2022-08-27T08:55:32.683Z,100154.28
2022-08-27T08:57:48.943Z,100148.13
2022-08-27T09:00:02.059Z,100142.19
2022-08-27T09:02:13.581Z,100138.94
2022-08-27T09:04:16.779Z,100141.22
2022-08-27T09:06:43.797Z,100137.88
2022-08-27T09:08:48.568Z,100139.38
2022-08-27T09:11:08.466Z,100132.38
2022-08-27T09:13:33.710Z,100134.84
2022-08-27T09:15:37.325Z,100137.69
2022-08-27T09:17:42.891Z,100132.56
2022-08-27T09:19:47.085Z,100133.25
2022-08-27T09:22:16.184Z,100129.19
2022-08-27T09:24:27.547Z,100131.31
2022-08-27T09:26:34.482Z,100126.88
2022-08-27T09:29:00.070Z,100136.31
2022-08-27T09:31:09.234Z,100133.66
2022-08-27T09:33:11.932Z,100129.22
2022-08-27T09:35:16.878Z,100131.88
2022-08-27T09:37:34.424Z,100137.47
2022-08-27T09:39:56.932Z,100133.56
2022-08-27T09:42:00.004Z,100126.97
2022-08-27T09:44:09.500Z,100122.38
2022-08-27T09:46:30.454Z,100117.06
2022-08-27T09:48:37.584Z,100121.47
2022-08-27T09:50:46.125Z,100124.06
2022-08-27T09:52:55.808Z,100128.13
2022-08-27T09:54:59.953Z,100130.53
2022-08-27T09:57:08.602Z,100124.97
2022-08-27T09:59:23.513Z,100126.13
2022-08-27T10:01:29.727Z,100130.88
2022-08-27T10:03:33.653Z,100132.81
2022-08-27T10:05:47.414Z,100128.66
2022-08-27T10:07:57.149Z,100126.28
2022-08-27T10:10:49.583Z,100128.84
2022-08-27T10:13:22.091Z,100125.81
2022-08-27T10:15:30.567Z,100124.31
2022-08-27T10:17:50.295Z,100128.91
2022-08-27T10:19:59.732Z,100121.53
2022-08-27T10:22:32.085Z,100119.75
2022-08-27T10:25:18.265Z,100125.72
2022-08-27T10:27:40.387Z,100122.03
2022-08-27T10:29:59.342Z,100117.50
2022-08-27T10:32:31.416Z,100113.66
2022-08-27T10:34:51.810Z,100113.00
2022-08-27T10:37:04.316Z,100117.06
2022-08-27T10:39:37.171Z,100120.28
2022-08-27T10:41:46.033Z,100122.22
2022-08-27T10:44:25.883Z,100116.06
2022-08-27T10:46:55.473Z,100112.41
2022-08-27T10:49:20.909Z,100110.72
2022-08-27T10:51:32.640Z,100106.88
2022-08-27T10:53:37.996Z,100115.09
2022-08-27T10:55:51.981Z,100111.53
2022-08-27T10:58:24.962Z,100104.84
2022-08-27T11:00:38.182Z,100107.00
2022-08-27T11:02:45.109Z,100106.41
2022-08-27T11:04:53.721Z,100098.78
2022-08-27T11:07:12.150Z,100105.50
2022-08-27T11:09:38.652Z,100105.50
2022-08-27T11:14:35.678Z,100104.97
2022-08-27T11:16:47.337Z,100104.81
2022-08-27T11:18:56.609Z,100098.41
2022-08-27T11:21:05.277Z,100104.22
2022-08-27T11:23:17.592Z,100104.97
2022-08-27T11:25:22.989Z,100102.28
2022-08-27T11:27:30.458Z,100094.78
2022-08-27T11:30:00.404Z,100094.66
2022-08-27T11:32:10.755Z,100094.31
2022-08-27T11:34:22.093Z,100093.66
2022-08-27T11:36:43.335Z,100095.50
2022-08-27T11:39:14.013Z,100076.56
2022-08-27T11:41:48.192Z,100091.41
2022-08-27T11:43:53.202Z,100086.31
2022-08-27T11:46:03.770Z,100088.06
2022-08-27T11:48:26.047Z,100083.84
2022-08-27T11:50:31.400Z,100077.75
2022-08-27T11:52:40.832Z,100083.97
2022-08-27T11:54:51.426Z,100084.94
2022-08-27T11:56:53.910Z,100081.78
2022-08-27T11:59:08.412Z,100077.22
2022-08-27T12:01:28.680Z,100080.09
2022-08-27T12:03:35.409Z,100074.81
2022-08-27T12:05:53.906Z,100086.75
2022-08-27T12:07:57.812Z,100077.38
2022-08-27T12:10:00.338Z,100081.66
2022-08-27T12:12:20.198Z,100088.81
2022-08-27T12:14:41.647Z,100079.91
2022-08-27T12:16:49.839Z,100077.53
2022-08-27T12:18:57.999Z,100072.25
2022-08-27T12:21:18.991Z,100077.13
2022-08-27T12:23:40.298Z,100073.16
2022-08-27T12:26:15.772Z,100076.59
2022-08-27T12:28:26.688Z,100075.94
2022-08-27T12:30:35.852Z,100073.50
2022-08-27T12:32:45.172Z,100068.63
2022-08-27T12:34:57.779Z,100075.63
2022-08-27T12:37:07.433Z,100063.03
2022-08-27T12:39:17.441Z,100067.41
2022-08-27T12:41:29.447Z,100071.00
2022-08-27T12:43:33.925Z,100072.41
2022-08-27T12:45:46.125Z,100068.69
2022-08-27T12:47:50.957Z,100072.75
2022-08-27T12:50:00.710Z,100072.00
2022-08-27T12:52:15.793Z,100069.03
2022-08-27T12:54:38.686Z,100070.81
2022-08-27T12:57:07.632Z,100067.66
2022-08-27T12:59:36.014Z,100070.16
2022-08-27T13:01:54.908Z,100064.16
2022-08-27T13:04:01.197Z,100066.34
2022-08-27T13:06:17.286Z,100068.78
2022-08-27T13:08:23.838Z,100065.25
2022-08-27T13:10:31.267Z,100066.66
2022-08-27T13:12:34.003Z,100065.38
2022-08-27T13:14:41.134Z,100064.66
2022-08-27T13:16:57.837Z,100061.13
2022-08-27T13:19:00.764Z,100061.75
2022-08-27T13:21:12.570Z,100066.69
2022-08-27T13:23:22.701Z,100054.00
2022-08-27T13:25:31.033Z,100058.00
2022-08-27T13:27:37.616Z,100058.38
2022-08-27T13:29:42.566Z,100060.34
2022-08-27T13:31:46.047Z,100061.66
2022-08-27T13:33:49.177Z,100053.94
2022-08-27T13:35:52.086Z,100054.28
2022-08-27T13:37:56.001Z,100039.28
2022-08-27T13:39:58.990Z,100054.97
2022-08-27T13:42:04.550Z,100051.03
2022-08-27T13:44:19.024Z,100052.81
2022-08-27T13:46:31.541Z,100052.00
2022-08-27T13:48:34.357Z,100059.00
2022-08-27T13:50:37.472Z,100057.25
2022-08-27T13:53:01.881Z,100051.16
2022-08-27T13:55:15.251Z,100053.19
2022-08-27T13:57:39.914Z,100052.03
2022-08-27T13:59:42.861Z,100048.75
2022-08-27T14:02:03.621Z,100054.00
2022-08-27T14:04:08.392Z,100050.50
2022-08-27T14:06:23.962Z,100046.88
2022-08-27T14:08:36.369Z,100049.25
2022-08-27T14:10:41.081Z,100047.75
2022-08-27T14:12:45.329Z,100053.19
2022-08-27T14:14:54.547Z,100045.84
2022-08-27T14:17:08.992Z,100048.06
2022-08-27T14:19:28.642Z,100045.91
2022-08-27T14:21:39.726Z,100041.34
2022-08-27T14:23:42.408Z,100040.66
2022-08-27T14:25:46.388Z,100044.72
2022-08-27T14:27:53.087Z,100040.97
2022-08-27T14:29:57.334Z,100048.47
2022-08-27T14:32:00.816Z,100036.50
2022-08-27T14:34:03.462Z,100036.38
2022-08-27T14:36:07.525Z,100041.50
2022-08-27T14:38:22.936Z,100035.00
2022-08-27T14:40:25.691Z,100036.97
2022-08-27T14:42:28.998Z,100040.34
2022-08-27T14:44:31.933Z,100040.25
2022-08-27T14:46:41.543Z,100042.41
2022-08-27T14:48:46.291Z,100053.72
2022-08-27T14:50:54.518Z,100043.75
2022-08-27T14:52:57.093Z,100043.97
2022-08-27T14:54:59.730Z,100034.34
2022-08-27T14:57:04.220Z,100043.16
2022-08-27T14:59:07.302Z,100046.75
2022-08-27T15:01:10.340Z,100047.03
2022-08-27T15:03:13.112Z,100044.53
2022-08-27T15:05:17.819Z,100034.25
2022-08-27T15:07:20.639Z,100044.34
2022-08-27T15:09:26.321Z,100049.22
2022-08-27T15:11:32.520Z,100044.38
2022-08-27T15:13:35.122Z,100054.22
2022-08-27T15:15:41.634Z,100051.50
2022-08-27T15:17:44.303Z,100047.19
2022-08-27T15:19:47.180Z,100042.22
2022-08-27T15:21:53.194Z,100053.25
2022-08-27T15:24:00.338Z,100047.25
2022-08-27T15:26:03.122Z,100057.28
2022-08-27T15:28:07.082Z,100050.25
2022-08-27T15:30:12.729Z,100045.72
2022-08-27T15:32:35.035Z,100052.06
2022-08-27T15:34:37.663Z,100049.69
2022-08-27T15:36:41.054Z,100053.94
2022-08-27T15:38:43.681Z,100050.91
2022-08-27T15:40:46.700Z,100049.59
2022-08-27T15:42:55.456Z,100049.50
2022-08-27T15:44:58.281Z,100054.06
2022-08-27T15:47:00.941Z,100055.41
2022-08-27T15:49:04.405Z,100058.00
2022-08-27T15:51:10.795Z,100057.53
2022-08-27T15:53:13.503Z,100059.72
2022-08-27T15:55:33.881Z,100058.81
2022-08-27T15:57:36.483Z,100061.53
2022-08-27T15:59:40.351Z,100063.63
2022-08-27T16:01:43.751Z,100062.13
2022-08-27T16:03:47.009Z,100065.38
2022-08-27T16:05:49.680Z,100066.03
2022-08-27T16:07:52.281Z,100060.25
2022-08-27T16:09:55.117Z,100063.22
2022-08-27T16:11:58.649Z,100070.13
2022-08-27T16:14:01.607Z,100070.56
2022-08-27T16:16:06.174Z,100062.84
2022-08-27T16:18:10.150Z,100065.03
2022-08-27T16:20:15.433Z,100067.94
2022-08-27T16:22:18.501Z,100058.94
2022-08-27T16:24:21.881Z,100057.25
2022-08-27T16:26:24.547Z,100062.91
2022-08-27T16:28:27.387Z,100056.69
2022-08-27T16:30:30.426Z,100064.03
2022-08-27T16:32:33.104Z,100065.69
2022-08-27T16:34:35.752Z,100065.28
2022-08-27T16:36:38.315Z,100068.84
2022-08-27T16:38:41.015Z,100070.06
2022-08-27T16:40:47.912Z,100073.03
2022-08-27T16:42:52.116Z,100076.91
2022-08-27T16:44:56.890Z,100064.91
2022-08-27T16:46:59.465Z,100070.03
2022-08-27T16:49:20.793Z,100070.50
2022-08-27T16:51:29.598Z,100062.09
2022-08-27T16:53:41.367Z,100068.44
2022-08-27T16:55:46.146Z,100074.56
2022-08-27T16:57:48.669Z,100048.59
2022-08-27T16:59:51.429Z,100069.09
2022-08-27T17:01:54.677Z,100071.25
2022-08-27T17:04:14.830Z,100078.53
2022-08-27T17:06:25.680Z,100075.34
2022-08-27T17:08:30.442Z,100074.59
2022-08-27T17:10:40.802Z,100083.56
2022-08-27T17:12:47.304Z,100081.59
2022-08-27T17:14:51.294Z,100076.78
2022-08-27T17:16:54.779Z,100078.44
2022-08-27T17:19:00.917Z,100078.88
2022-08-27T17:21:04.897Z,100074.53
2022-08-27T17:23:15.564Z,100073.78
2022-08-27T17:25:18.281Z,100075.47
2022-08-27T17:27:20.883Z,100084.44
2022-08-27T17:29:23.929Z,100084.91
2022-08-27T17:31:37.357Z,100083.75
2022-08-27T17:33:51.494Z,100085.88
2022-08-27T17:35:54.086Z,100088.38
2022-08-27T17:37:56.684Z,100088.84
2022-08-27T17:39:59.332Z,100092.50
2022-08-27T17:42:01.963Z,100086.06
2022-08-27T17:44:19.739Z,100084.09
2022-08-27T17:46:22.285Z,100084.50
2022-08-27T17:48:26.705Z,100087.44
2022-08-27T17:50:29.643Z,100086.66
2022-08-27T17:52:34.098Z,100089.47
2022-08-27T17:54:45.933Z,100087.94
2022-08-27T17:56:51.642Z,100084.69
2022-08-27T17:58:54.658Z,100091.13
2022-08-27T18:00:57.402Z,100090.34
2022-08-27T18:03:00.635Z,100085.13
2022-08-27T18:05:04.738Z,100078.34
2022-08-27T18:07:07.566Z,100087.56
2022-08-27T18:09:10.593Z,100088.78
2022-08-27T18:11:13.739Z,100094.84
2022-08-27T18:13:17.905Z,100085.19
2022-08-27T18:15:29.097Z,100091.25
2022-08-27T18:17:34.303Z,100088.84
2022-08-27T18:19:45.415Z,100090.09
2022-08-27T18:21:48.336Z,100084.06
2022-08-27T18:23:51.699Z,100087.28
2022-08-27T18:25:55.632Z,100094.94
2022-08-27T18:28:01.438Z,100083.28
2022-08-27T18:30:06.462Z,100088.94
2022-08-27T18:32:09.039Z,100082.91
2022-08-27T18:34:11.718Z,100079.28
2022-08-27T18:36:15.483Z,100080.53
2022-08-27T18:38:18.658Z,100078.13
2022-08-27T18:40:24.176Z,100081.00
2022-08-27T18:42:38.146Z,100084.28
2022-08-27T18:44:43.226Z,100089.16
2022-08-27T18:46:46.137Z,100083.13
2022-08-27T18:48:48.723Z,100078.72
2022-08-27T18:50:58.884Z,100081.13
2022-08-27T18:53:02.955Z,100071.13
2022-08-27T18:55:08.508Z,100072.75
2022-08-27T18:57:12.971Z,100069.94
2022-08-27T18:59:16.298Z,100070.00
2022-08-27T19:01:24.790Z,100070.81
2022-08-27T19:03:33.769Z,100065.63
2022-08-27T19:05:36.481Z,100068.47
2022-08-27T19:07:39.521Z,100076.53
2022-08-27T19:09:43.008Z,100070.94
2022-08-27T19:11:45.754Z,100079.03
2022-08-27T19:13:50.634Z,100073.41
2022-08-27T19:16:06.684Z,100080.28
2022-08-27T19:18:09.746Z,100084.34
2022-08-27T19:20:12.910Z,100080.34
2022-08-27T19:22:15.770Z,100080.78
2022-08-27T19:24:19.351Z,100078.78
2022-08-27T19:26:25.494Z,100073.19
2022-08-27T19:28:37.523Z,100072.41
2022-08-27T19:30:40.231Z,100074.81
2022-08-27T19:32:43.144Z,100076.03
2022-08-27T19:34:45.959Z,100075.28
2022-08-27T19:36:48.573Z,100068.84
2022-08-27T19:38:53.024Z,100073.28
2022-08-27T19:40:55.806Z,100061.66
2022-08-27T19:42:58.553Z,100070.91
2022-08-27T19:45:01.245Z,100073.34
2022-08-27T19:47:07.681Z,100076.16
2022-08-27T19:49:10.373Z,100071.75
2022-08-27T19:51:13.577Z,100072.97
2022-08-27T19:53:16.345Z,100068.16
2022-08-27T19:55:19.731Z,100072.19
2022-08-27T19:57:22.420Z,100069.78
2022-08-27T19:59:25.344Z,100067.81
2022-08-27T20:01:27.940Z,100068.59
2022-08-27T20:03:30.683Z,100071.03
2022-08-27T20:05:33.479Z,100069.44
2022-08-27T20:07:36.086Z,100069.81
2022-08-27T20:09:38.727Z,100071.06
2022-08-27T20:11:43.460Z,100081.09
2022-08-27T20:13:50.495Z,100073.88
2022-08-27T20:15:53.468Z,100072.25
2022-08-27T20:17:56.116Z,100071.50
2022-08-27T20:19:59.090Z,100071.50
2022-08-27T20:22:02.576Z,100072.69
2022-08-27T20:24:05.853Z,100075.91
2022-08-27T20:26:08.656Z,100077.53
2022-08-27T20:28:35.435Z,100075.16
2022-08-27T20:30:34.966Z,100071.56
2022-08-27T20:32:37.974Z,100069.13
2022-08-27T20:34:40.752Z,100069.16
2022-08-27T20:36:43.554Z,100065.16
2022-08-27T20:38:46.266Z,100061.16
2022-08-27T20:40:49.435Z,100068.38
2022-08-27T20:42:52.373Z,100061.56
2022-08-27T20:44:54.904Z,100057.56
2022-08-27T20:47:01.156Z,100069.19
2022-08-27T20:49:04.591Z,100061.97
2022-08-27T20:51:07.466Z,100060.34
2022-08-27T20:53:10.036Z,100061.97
2022-08-27T20:55:14.354Z,100063.59
2022-08-27T20:57:17.089Z,100067.22
2022-08-27T20:59:38.455Z,100069.25
2022-08-27T21:01:41.099Z,100061.22
2022-08-27T21:03:43.817Z,100068.84
2022-08-27T21:05:48.782Z,100060.44
2022-08-27T21:07:53.125Z,100060.84
2022-08-27T21:09:57.543Z,100066.09
2022-08-27T21:12:00.371Z,100058.88
2022-08-27T21:14:03.026Z,100061.28
2022-08-27T21:16:06.212Z,100057.25
2022-08-27T21:18:08.844Z,100062.88
2022-08-27T21:20:13.094Z,100062.84
2022-08-27T21:22:15.825Z,100064.84
2022-08-27T21:24:18.955Z,100052.81
2022-08-27T21:26:23.075Z,100058.47
2022-08-27T21:28:25.833Z,100061.25
2022-08-27T21:30:28.473Z,100053.25
2022-08-27T21:32:31.062Z,100058.88
2022-08-27T21:34:33.702Z,100056.06
2022-08-27T21:36:36.921Z,100052.44
2022-08-27T21:38:39.962Z,100058.47
2022-08-27T21:40:42.721Z,100066.06
2022-08-27T21:42:45.388Z,100058.84
2022-08-27T21:44:47.975Z,100065.28
2022-08-27T21:46:50.550Z,100055.66
2022-08-27T21:48:58.662Z,100063.66
2022-08-27T21:51:11.159Z,100067.28
2022-08-27T21:53:13.869Z,100060.06
2022-08-27T21:55:16.932Z,100066.50
2022-08-27T21:57:19.878Z,100068.47
2022-08-27T21:59:22.648Z,100066.09
2022-08-27T22:01:25.284Z,100068.47
2022-08-27T22:03:27.849Z,100066.88
2022-08-27T22:05:30.391Z,100067.25
2022-08-27T22:07:33.031Z,100060.88
2022-08-27T22:09:35.819Z,100066.47
2022-08-27T22:11:38.403Z,100071.69
2022-08-27T22:13:41.152Z,100062.06
2022-08-27T22:15:44.169Z,100061.25
2022-08-27T22:17:51.131Z,100049.59
2022-08-27T22:19:54.038Z,100065.25
2022-08-27T22:21:56.918Z,100061.63
2022-08-27T22:23:59.751Z,100066.44
2022-08-27T22:26:03.521Z,100066.84
2022-08-27T22:28:06.421Z,100068.06
2022-08-27T22:30:11.419Z,100062.00
2022-08-27T22:32:14.102Z,100061.59
2022-08-27T22:34:17.175Z,100064.41
2022-08-27T22:36:20.408Z,100067.22
2022-08-27T22:38:23.028Z,100063.19
2022-08-27T22:40:29.303Z,100058.38
2022-08-27T22:42:33.079Z,100062.78
2022-08-27T22:44:38.647Z,100060.75
2022-08-27T22:46:41.363Z,100061.19
2022-08-27T22:48:44.079Z,100056.75
2022-08-27T22:50:46.878Z,100066.78
2022-08-27T22:52:49.880Z,100059.53
2022-08-27T22:54:54.822Z,100069.56
2022-08-27T22:56:57.613Z,100063.53
2022-08-27T22:59:00.356Z,100074.34
2022-08-27T23:01:03.114Z,100072.75
2022-08-27T23:03:09.235Z,100070.75
2022-08-27T23:05:13.554Z,100069.13
2022-08-27T23:07:16.202Z,100075.16
2022-08-27T23:09:19.014Z,100074.31
2022-08-27T23:11:21.633Z,100071.91
2022-08-27T23:13:24.518Z,100071.50
2022-08-27T23:15:29.429Z,100075.09
2022-08-27T23:17:31.983Z,100077.88
2022-08-27T23:19:34.562Z,100073.06
2022-08-27T23:21:37.388Z,100070.22
2022-08-27T23:23:39.991Z,100073.81
2022-08-27T23:26:01.442Z,100076.59
2022-08-27T23:28:06.530Z,100076.19
2022-08-27T23:30:10.808Z,100079.34
2022-08-27T23:32:14.408Z,100067.28
2022-08-27T23:34:18.161Z,100067.25
2022-08-27T23:36:21.850Z,100066.03
2022-08-27T23:38:24.568Z,100071.22
2022-08-27T23:40:27.429Z,100069.63
2022-08-27T23:42:30.138Z,100072.81
2022-08-27T23:44:32.713Z,100073.63
2022-08-27T23:46:35.310Z,100068.00
2022-08-27T23:48:39.514Z,100073.63
2022-08-27T23:50:42.623Z,100067.97
2022-08-27T23:52:45.310Z,100067.94
2022-08-27T23:54:47.938Z,100071.16
2022-08-27T23:56:50.557Z,100069.50
2022-08-27T23:58:53.183Z,100067.09
